Arlington, Ohio
Current Conditions -  °F | °C
As of 12:53 AM on Sunday 23 Nov 2014 (Local Time) from KFDY Reporting Station
Overcast Overcast  
Wind Chill: 10°   Ceiling: 4000
Heat Index: 10°   Visibility: 10mi
Dew Point:   Wind: 12mph
Humidity: 63%   Direction: 200°SSW
Pressure: 30"   Gusts: NA
Location:  40.89°N, 83.65°W
Report Text: KFDY 230553Z AUTO 20010KT 10SM OVC040 10/03 A3000 RMK AO2 SLP157 60000 T01000033 10106 20094 53001
Loading
Personal Weather Stations






























Interactive Weather Map New forecast layout! Learn more

10-Day Weather Forecast

Advertisements
Track Severe Weather on mobile